sensor_id;sensor_type;location;lat;lon;timestamp;P1;durP1;ratioP1;P2;durP2;ratioP2
5730;SDS011;2890;51.950;7.668;2023-05-10T00:01:34;9.77;;;8.80;;
5730;SDS011;2890;51.950;7.668;2023-05-10T00:04:00;21.10;;;11.10;;
5730;SDS011;2890;51.950;7.668;2023-05-10T00:06:28;12.70;;;10.33;;
5730;SDS011;2890;51.950;7.668;2023-05-10T00:08:54;16.80;;;12.00;;
5730;SDS011;2890;51.950;7.668;2023-05-10T00:11:21;19.57;;;12.57;;
5730;SDS011;2890;51.950;7.668;2023-05-10T00:13:47;13.43;;;10.90;;
5730;SDS011;2890;51.950;7.668;2023-05-10T00:16:14;14.30;;;12.00;;
5730;SDS011;2890;51.950;7.668;2023-05-10T00:18:40;11.93;;;10.57;;
5730;SDS011;2890;51.950;7.668;2023-05-10T00:21:07;13.90;;;11.87;;
5730;SDS011;2890;51.950;7.668;2023-05-10T00:23:37;14.23;;;12.17;;
5730;SDS011;2890;51.950;7.668;2023-05-10T00:26:03;15.97;;;12.70;;
5730;SDS011;2890;51.950;7.668;2023-05-10T00:28:30;23.43;;;12.90;;
5730;SDS011;2890;51.950;7.668;2023-05-10T00:30:56;14.83;;;12.23;;
5730;SDS011;2890;51.950;7.668;2023-05-10T00:33:22;15.30;;;12.67;;
5730;SDS011;2890;51.950;7.668;2023-05-10T00:35:49;18.17;;;12.50;;
5730;SDS011;2890;51.950;7.668;2023-05-10T00:38:15;16.00;;;11.23;;
5730;SDS011;2890;51.950;7.668;2023-05-10T00:40:43;14.10;;;11.27;;
5730;SDS011;2890;51.950;7.668;2023-05-10T00:43:10;21.27;;;13.70;;
5730;SDS011;2890;51.950;7.668;2023-05-10T00:45:36;16.63;;;12.77;;
5730;SDS011;2890;51.950;7.668;2023-05-10T00:48:03;13.50;;;11.40;;
5730;SDS011;2890;51.950;7.668;2023-05-10T00:50:31;21.33;;;12.87;;
5730;SDS011;2890;51.950;7.668;2023-05-10T00:52:58;17.90;;;11.23;;
5730;SDS011;2890;51.950;7.668;2023-05-10T00:55:25;13.63;;;11.20;;
5730;SDS011;2890;51.950;7.668;2023-05-10T00:57:53;17.23;;;11.90;;
5730;SDS011;2890;51.950;7.668;2023-05-10T01:00:19;14.97;;;11.57;;
5730;SDS011;2890;51.950;7.668;2023-05-10T01:02:46;13.47;;;10.70;;
5730;SDS011;2890;51.950;7.668;2023-05-10T01:05:14;15.30;;;11.40;;
5730;SDS011;2890;51.950;7.668;2023-05-10T01:07:40;13.20;;;9.90;;
5730;SDS011;2890;51.950;7.668;2023-05-10T01:10:07;12.73;;;11.07;;
5730;SDS011;2890;51.950;7.668;2023-05-10T01:12:35;14.83;;;11.20;;
5730;SDS011;2890;51.950;7.668;2023-05-10T01:15:06;11.40;;;9.93;;
5730;SDS011;2890;51.950;7.668;2023-05-10T01:17:33;11.40;;;10.10;;
5730;SDS011;2890;51.950;7.668;2023-05-10T01:20:01;15.40;;;11.00;;
5730;SDS011;2890;51.950;7.668;2023-05-10T01:22:35;13.37;;;10.23;;
5730;SDS011;2890;51.950;7.668;2023-05-10T01:28:12;16.17;;;11.00;;
5730;SDS011;2890;51.950;7.668;2023-05-10T01:33:48;10.87;;;9.23;;
5730;SDS011;2890;51.950;7.668;2023-05-10T01:36:19;10.63;;;8.87;;
5730;SDS011;2890;51.950;7.668;2023-05-10T01:38:52;11.20;;;7.70;;
5730;SDS011;2890;51.950;7.668;2023-05-10T01:41:24;12.23;;;5.70;;
5730;SDS011;2890;51.950;7.668;2023-05-10T01:43:54;6.00;;;5.60;;
5730;SDS011;2890;51.950;7.668;2023-05-10T01:46:24;5.30;;;4.90;;
5730;SDS011;2890;51.950;7.668;2023-05-10T01:48:55;14.10;;;5.03;;
5730;SDS011;2890;51.950;7.668;2023-05-10T01:51:24;4.00;;;3.70;;
5730;SDS011;2890;51.950;7.668;2023-05-10T01:53:54;3.50;;;3.20;;
5730;SDS011;2890;51.950;7.668;2023-05-10T01:56:26;3.17;;;2.87;;
5730;SDS011;2890;51.950;7.668;2023-05-10T01:58:54;3.23;;;2.30;;
5730;SDS011;2890;51.950;7.668;2023-05-10T02:01:21;3.00;;;2.80;;
5730;SDS011;2890;51.950;7.668;2023-05-10T02:03:48;2.03;;;1.80;;
5730;SDS011;2890;51.950;7.668;2023-05-10T02:06:17;3.73;;;1.23;;
5730;SDS011;2890;51.950;7.668;2023-05-10T02:08:44;11.63;;;2.13;;
5730;SDS011;2890;51.950;7.668;2023-05-10T02:11:12;2.40;;;1.70;;
5730;SDS011;2890;51.950;7.668;2023-05-10T02:13:38;1.50;;;1.30;;
5730;SDS011;2890;51.950;7.668;2023-05-10T02:16:05;2.43;;;1.53;;
5730;SDS011;2890;51.950;7.668;2023-05-10T02:18:33;8.63;;;2.70;;
5730;SDS011;2890;51.950;7.668;2023-05-10T02:21:00;2.10;;;1.90;;
5730;SDS011;2890;51.950;7.668;2023-05-10T02:23:28;2.77;;;2.20;;
5730;SDS011;2890;51.950;7.668;2023-05-10T02:25:56;2.77;;;2.53;;
5730;SDS011;2890;51.950;7.668;2023-05-10T02:28:23;3.33;;;3.07;;
5730;SDS011;2890;51.950;7.668;2023-05-10T02:30:51;3.67;;;3.37;;
5730;SDS011;2890;51.950;7.668;2023-05-10T02:33:18;3.60;;;3.30;;
5730;SDS011;2890;51.950;7.668;2023-05-10T02:35:46;4.30;;;3.50;;
5730;SDS011;2890;51.950;7.668;2023-05-10T02:38:13;3.47;;;3.17;;
5730;SDS011;2890;51.950;7.668;2023-05-10T02:40:42;6.03;;;3.83;;
5730;SDS011;2890;51.950;7.668;2023-05-10T02:43:09;4.23;;;3.83;;
5730;SDS011;2890;51.950;7.668;2023-05-10T02:45:38;9.47;;;5.13;;
5730;SDS011;2890;51.950;7.668;2023-05-10T02:48:05;5.47;;;4.97;;
5730;SDS011;2890;51.950;7.668;2023-05-10T02:50:32;5.33;;;4.60;;
5730;SDS011;2890;51.950;7.668;2023-05-10T02:53:00;6.17;;;5.67;;
5730;SDS011;2890;51.950;7.668;2023-05-10T02:55:30;6.17;;;5.67;;
5730;SDS011;2890;51.950;7.668;2023-05-10T02:58:00;6.33;;;5.67;;
5730;SDS011;2890;51.950;7.668;2023-05-10T03:00:27;6.60;;;5.97;;
5730;SDS011;2890;51.950;7.668;2023-05-10T03:02:54;7.03;;;6.13;;
5730;SDS011;2890;51.950;7.668;2023-05-10T03:05:21;7.00;;;6.30;;
5730;SDS011;2890;51.950;7.668;2023-05-10T03:07:47;6.23;;;5.73;;
5730;SDS011;2890;51.950;7.668;2023-05-10T03:10:14;6.43;;;5.93;;
5730;SDS011;2890;51.950;7.668;2023-05-10T03:12:47;5.80;;;5.40;;
5730;SDS011;2890;51.950;7.668;2023-05-10T03:15:25;6.47;;;5.97;;
5730;SDS011;2890;51.950;7.668;2023-05-10T03:17:56;7.07;;;6.43;;
5730;SDS011;2890;51.950;7.668;2023-05-10T03:20:29;6.90;;;6.20;;
5730;SDS011;2890;51.950;7.668;2023-05-10T03:23:07;8.73;;;6.27;;
5730;SDS011;2890;51.950;7.668;2023-05-10T03:25:37;12.80;;;6.27;;
5730;SDS011;2890;51.950;7.668;2023-05-10T03:28:05;6.47;;;5.97;;
5730;SDS011;2890;51.950;7.668;2023-05-10T03:30:33;8.63;;;6.00;;
5730;SDS011;2890;51.950;7.668;2023-05-10T03:33:04;6.53;;;5.97;;
5730;SDS011;2890;51.950;7.668;2023-05-10T03:35:30;7.07;;;6.10;;
5730;SDS011;2890;51.950;7.668;2023-05-10T03:37:57;6.33;;;5.83;;
5730;SDS011;2890;51.950;7.668;2023-05-10T03:40:23;8.63;;;6.10;;
5730;SDS011;2890;51.950;7.668;2023-05-10T03:42:50;7.73;;;6.30;;
5730;SDS011;2890;51.950;7.668;2023-05-10T03:45:17;9.23;;;7.63;;
5730;SDS011;2890;51.950;7.668;2023-05-10T03:47:45;6.33;;;5.80;;
5730;SDS011;2890;51.950;7.668;2023-05-10T03:50:11;6.33;;;5.73;;
5730;SDS011;2890;51.950;7.668;2023-05-10T03:52:38;6.33;;;5.83;;
5730;SDS011;2890;51.950;7.668;2023-05-10T03:55:05;7.83;;;6.70;;
5730;SDS011;2890;51.950;7.668;2023-05-10T03:57:32;7.40;;;5.83;;
5730;SDS011;2890;51.950;7.668;2023-05-10T03:59:59;6.33;;;5.70;;
5730;SDS011;2890;51.950;7.668;2023-05-10T04:02:25;8.17;;;6.33;;
5730;SDS011;2890;51.950;7.668;2023-05-10T04:04:53;6.80;;;6.20;;
5730;SDS011;2890;51.950;7.668;2023-05-10T04:07:20;7.20;;;6.60;;
5730;SDS011;2890;51.950;7.668;2023-05-10T04:09:46;11.20;;;6.73;;
5730;SDS011;2890;51.950;7.668;2023-05-10T04:12:16;7.93;;;7.17;;
5730;SDS011;2890;51.950;7.668;2023-05-10T04:14:44;7.77;;;6.97;;
5730;SDS011;2890;51.950;7.668;2023-05-10T04:17:10;9.57;;;7.97;;
5730;SDS011;2890;51.950;7.668;2023-05-10T04:19:37;7.70;;;6.90;;
5730;SDS011;2890;51.950;7.668;2023-05-10T04:22:04;7.33;;;6.53;;
5730;SDS011;2890;51.950;7.668;2023-05-10T04:24:31;7.33;;;6.73;;
5730;SDS011;2890;51.950;7.668;2023-05-10T04:26:57;7.70;;;6.93;;
5730;SDS011;2890;51.950;7.668;2023-05-10T04:29:24;10.37;;;7.93;;
5730;SDS011;2890;51.950;7.668;2023-05-10T04:31:51;7.37;;;6.73;;
5730;SDS011;2890;51.950;7.668;2023-05-10T04:34:18;8.33;;;7.40;;
5730;SDS011;2890;51.950;7.668;2023-05-10T04:36:46;7.20;;;6.50;;
5730;SDS011;2890;51.950;7.668;2023-05-10T04:39:14;7.87;;;7.03;;
5730;SDS011;2890;51.950;7.668;2023-05-10T04:41:40;25.80;;;8.77;;
5730;SDS011;2890;51.950;7.668;2023-05-10T04:44:07;13.07;;;8.80;;
5730;SDS011;2890;51.950;7.668;2023-05-10T04:46:33;19.70;;;9.30;;
5730;SDS011;2890;51.950;7.668;2023-05-10T04:49:00;11.03;;;9.87;;
5730;SDS011;2890;51.950;7.668;2023-05-10T04:51:26;13.80;;;10.30;;
5730;SDS011;2890;51.950;7.668;2023-05-10T04:53:52;11.50;;;9.87;;
5730;SDS011;2890;51.950;7.668;2023-05-10T04:56:20;14.73;;;11.57;;
5730;SDS011;2890;51.950;7.668;2023-05-10T04:58:47;16.20;;;10.87;;
5730;SDS011;2890;51.950;7.668;2023-05-10T05:01:14;12.63;;;11.13;;
5730;SDS011;2890;51.950;7.668;2023-05-10T05:03:41;20.03;;;11.63;;
5730;SDS011;2890;51.950;7.668;2023-05-10T05:06:07;17.70;;;12.63;;
5730;SDS011;2890;51.950;7.668;2023-05-10T05:08:34;17.20;;;12.17;;
5730;SDS011;2890;51.950;7.668;2023-05-10T05:11:00;15.70;;;11.13;;
5730;SDS011;2890;51.950;7.668;2023-05-10T05:13:28;21.57;;;12.27;;
5730;SDS011;2890;51.950;7.668;2023-05-10T05:15:54;19.77;;;12.70;;
5730;SDS011;2890;51.950;7.668;2023-05-10T05:18:21;17.23;;;13.17;;
5730;SDS011;2890;51.950;7.668;2023-05-10T05:20:47;17.53;;;13.13;;
5730;SDS011;2890;51.950;7.668;2023-05-10T05:23:14;17.27;;;12.67;;
5730;SDS011;2890;51.950;7.668;2023-05-10T05:25:40;22.43;;;14.60;;
5730;SDS011;2890;51.950;7.668;2023-05-10T05:28:07;20.40;;;14.00;;
5730;SDS011;2890;51.950;7.668;2023-05-10T05:30:34;20.17;;;14.67;;
5730;SDS011;2890;51.950;7.668;2023-05-10T05:33:01;19.60;;;14.00;;
5730;SDS011;2890;51.950;7.668;2023-05-10T05:35:27;22.40;;;14.70;;
5730;SDS011;2890;51.950;7.668;2023-05-10T05:37:54;25.73;;;15.67;;
5730;SDS011;2890;51.950;7.668;2023-05-10T05:40:21;33.53;;;18.87;;
5730;SDS011;2890;51.950;7.668;2023-05-10T05:42:47;29.93;;;16.97;;
5730;SDS011;2890;51.950;7.668;2023-05-10T05:45:14;30.20;;;17.50;;
5730;SDS011;2890;51.950;7.668;2023-05-10T05:47:41;31.00;;;17.80;;
5730;SDS011;2890;51.950;7.668;2023-05-10T05:50:08;31.20;;;18.63;;
5730;SDS011;2890;51.950;7.668;2023-05-10T05:52:35;38.93;;;18.73;;
5730;SDS011;2890;51.950;7.668;2023-05-10T05:55:02;37.97;;;19.90;;
5730;SDS011;2890;51.950;7.668;2023-05-10T05:57:29;43.10;;;20.60;;
5730;SDS011;2890;51.950;7.668;2023-05-10T05:59:55;40.20;;;20.83;;
5730;SDS011;2890;51.950;7.668;2023-05-10T06:02:22;44.17;;;21.80;;
5730;SDS011;2890;51.950;7.668;2023-05-10T06:04:53;42.13;;;20.50;;
5730;SDS011;2890;51.950;7.668;2023-05-10T06:07:20;44.30;;;21.40;;
5730;SDS011;2890;51.950;7.668;2023-05-10T06:09:47;51.10;;;21.70;;
5730;SDS011;2890;51.950;7.668;2023-05-10T06:12:13;48.83;;;21.53;;
5730;SDS011;2890;51.950;7.668;2023-05-10T06:14:40;53.80;;;22.23;;
5730;SDS011;2890;51.950;7.668;2023-05-10T06:17:06;49.03;;;22.77;;
5730;SDS011;2890;51.950;7.668;2023-05-10T06:19:32;53.23;;;22.93;;
5730;SDS011;2890;51.950;7.668;2023-05-10T06:22:00;51.43;;;21.57;;
5730;SDS011;2890;51.950;7.668;2023-05-10T06:24:27;49.07;;;21.30;;
5730;SDS011;2890;51.950;7.668;2023-05-10T06:26:53;50.73;;;21.17;;
5730;SDS011;2890;51.950;7.668;2023-05-10T06:29:20;42.63;;;21.10;;
5730;SDS011;2890;51.950;7.668;2023-05-10T06:31:46;43.17;;;20.30;;
5730;SDS011;2890;51.950;7.668;2023-05-10T06:34:13;36.23;;;17.93;;
5730;SDS011;2890;51.950;7.668;2023-05-10T06:36:39;36.63;;;18.17;;
5730;SDS011;2890;51.950;7.668;2023-05-10T06:39:07;35.23;;;17.53;;
5730;SDS011;2890;51.950;7.668;2023-05-10T06:41:33;35.00;;;18.63;;
5730;SDS011;2890;51.950;7.668;2023-05-10T06:44:00;36.83;;;18.73;;
5730;SDS011;2890;51.950;7.668;2023-05-10T06:46:26;38.07;;;18.47;;
5730;SDS011;2890;51.950;7.668;2023-05-10T06:48:53;40.27;;;19.60;;
5730;SDS011;2890;51.950;7.668;2023-05-10T06:51:19;42.00;;;20.17;;
5730;SDS011;2890;51.950;7.668;2023-05-10T06:53:46;50.73;;;19.67;;
5730;SDS011;2890;51.950;7.668;2023-05-10T06:56:13;47.80;;;20.77;;
5730;SDS011;2890;51.950;7.668;2023-05-10T06:58:40;46.13;;;20.67;;
5730;SDS011;2890;51.950;7.668;2023-05-10T07:01:06;44.57;;;21.97;;
5730;SDS011;2890;51.950;7.668;2023-05-10T07:03:33;53.27;;;22.30;;
5730;SDS011;2890;51.950;7.668;2023-05-10T07:06:00;61.97;;;25.50;;
5730;SDS011;2890;51.950;7.668;2023-05-10T07:08:28;64.60;;;26.07;;
5730;SDS011;2890;51.950;7.668;2023-05-10T07:10:59;57.83;;;23.90;;
5730;SDS011;2890;51.950;7.668;2023-05-10T07:13:29;65.73;;;25.70;;
5730;SDS011;2890;51.950;7.668;2023-05-10T07:15:56;63.27;;;27.30;;
5730;SDS011;2890;51.950;7.668;2023-05-10T07:18:23;61.77;;;26.47;;
5730;SDS011;2890;51.950;7.668;2023-05-10T07:20:49;75.80;;;28.07;;
5730;SDS011;2890;51.950;7.668;2023-05-10T07:23:16;107.57;;;32.20;;
5730;SDS011;2890;51.950;7.668;2023-05-10T07:25:44;73.00;;;32.20;;
5730;SDS011;2890;51.950;7.668;2023-05-10T07:28:11;77.37;;;32.87;;
5730;SDS011;2890;51.950;7.668;2023-05-10T07:30:39;79.60;;;33.33;;
5730;SDS011;2890;51.950;7.668;2023-05-10T07:33:06;77.53;;;34.80;;
5730;SDS011;2890;51.950;7.668;2023-05-10T07:35:33;72.67;;;35.10;;
5730;SDS011;2890;51.950;7.668;2023-05-10T07:37:59;79.73;;;34.73;;
5730;SDS011;2890;51.950;7.668;2023-05-10T07:40:26;76.43;;;34.73;;
5730;SDS011;2890;51.950;7.668;2023-05-10T07:42:52;68.37;;;33.80;;
5730;SDS011;2890;51.950;7.668;2023-05-10T07:45:19;74.77;;;33.97;;
5730;SDS011;2890;51.950;7.668;2023-05-10T07:47:47;64.20;;;33.47;;
5730;SDS011;2890;51.950;7.668;2023-05-10T07:50:13;63.80;;;34.30;;
5730;SDS011;2890;51.950;7.668;2023-05-10T07:52:40;57.20;;;31.37;;
5730;SDS011;2890;51.950;7.668;2023-05-10T07:55:07;47.27;;;29.73;;
5730;SDS011;2890;51.950;7.668;2023-05-10T07:57:34;40.60;;;28.20;;
5730;SDS011;2890;51.950;7.668;2023-05-10T08:00:01;36.77;;;24.73;;
5730;SDS011;2890;51.950;7.668;2023-05-10T08:02:28;35.63;;;23.80;;
5730;SDS011;2890;51.950;7.668;2023-05-10T08:04:56;28.90;;;23.43;;
5730;SDS011;2890;51.950;7.668;2023-05-10T08:07:24;26.03;;;21.87;;
5730;SDS011;2890;51.950;7.668;2023-05-10T08:09:50;28.53;;;22.07;;
5730;SDS011;2890;51.950;7.668;2023-05-10T08:12:17;28.70;;;21.10;;
5730;SDS011;2890;51.950;7.668;2023-05-10T08:14:43;26.93;;;22.00;;
5730;SDS011;2890;51.950;7.668;2023-05-10T08:17:09;26.30;;;21.33;;
5730;SDS011;2890;51.950;7.668;2023-05-10T08:19:36;26.33;;;20.73;;
5730;SDS011;2890;51.950;7.668;2023-05-10T08:22:04;32.00;;;23.80;;
5730;SDS011;2890;51.950;7.668;2023-05-10T08:24:31;28.17;;;21.97;;
5730;SDS011;2890;51.950;7.668;2023-05-10T08:26:59;28.07;;;21.83;;
5730;SDS011;2890;51.950;7.668;2023-05-10T08:29:26;27.10;;;21.50;;
5730;SDS011;2890;51.950;7.668;2023-05-10T08:31:52;27.83;;;20.47;;
5730;SDS011;2890;51.950;7.668;2023-05-10T08:34:19;21.13;;;18.80;;
5730;SDS011;2890;51.950;7.668;2023-05-10T08:36:46;24.40;;;19.73;;
5730;SDS011;2890;51.950;7.668;2023-05-10T08:39:14;22.80;;;19.90;;
5730;SDS011;2890;51.950;7.668;2023-05-10T08:41:40;22.93;;;19.37;;
5730;SDS011;2890;51.950;7.668;2023-05-10T08:44:10;24.97;;;19.17;;
5730;SDS011;2890;51.950;7.668;2023-05-10T08:46:36;24.47;;;19.70;;
5730;SDS011;2890;51.950;7.668;2023-05-10T08:49:04;25.20;;;20.07;;
5730;SDS011;2890;51.950;7.668;2023-05-10T08:51:33;21.50;;;18.87;;
5730;SDS011;2890;51.950;7.668;2023-05-10T08:54:02;26.40;;;20.60;;
5730;SDS011;2890;51.950;7.668;2023-05-10T08:56:31;23.47;;;20.07;;
5730;SDS011;2890;51.950;7.668;2023-05-10T08:58:58;21.23;;;18.43;;
5730;SDS011;2890;51.950;7.668;2023-05-10T09:01:24;24.60;;;20.30;;
5730;SDS011;2890;51.950;7.668;2023-05-10T09:03:51;28.07;;;22.53;;
5730;SDS011;2890;51.950;7.668;2023-05-10T09:06:18;29.60;;;21.90;;
5730;SDS011;2890;51.950;7.668;2023-05-10T09:08:44;22.67;;;18.17;;
5730;SDS011;2890;51.950;7.668;2023-05-10T09:11:11;24.43;;;17.43;;
5730;SDS011;2890;51.950;7.668;2023-05-10T09:13:40;26.10;;;19.20;;
5730;SDS011;2890;51.950;7.668;2023-05-10T09:16:08;28.80;;;20.10;;
5730;SDS011;2890;51.950;7.668;2023-05-10T09:18:35;26.83;;;19.97;;
5730;SDS011;2890;51.950;7.668;2023-05-10T09:21:01;23.30;;;19.27;;
5730;SDS011;2890;51.950;7.668;2023-05-10T09:23:28;21.97;;;18.57;;
5730;SDS011;2890;51.950;7.668;2023-05-10T09:26:03;23.10;;;18.70;;
5730;SDS011;2890;51.950;7.668;2023-05-10T09:28:31;20.27;;;17.60;;
5730;SDS011;2890;51.950;7.668;2023-05-10T09:30:59;22.03;;;17.93;;
5730;SDS011;2890;51.950;7.668;2023-05-10T09:33:25;17.00;;;15.20;;
5730;SDS011;2890;51.950;7.668;2023-05-10T09:35:52;16.90;;;15.00;;
5730;SDS011;2890;51.950;7.668;2023-05-10T09:38:18;15.10;;;13.40;;
5730;SDS011;2890;51.950;7.668;2023-05-10T09:40:50;18.27;;;14.93;;
5730;SDS011;2890;51.950;7.668;2023-05-10T09:43:19;14.87;;;13.37;;
5730;SDS011;2890;51.950;7.668;2023-05-10T09:45:46;14.53;;;13.00;;
5730;SDS011;2890;51.950;7.668;2023-05-10T09:48:16;16.30;;;14.20;;
5730;SDS011;2890;51.950;7.668;2023-05-10T09:50:42;16.80;;;15.00;;
5730;SDS011;2890;51.950;7.668;2023-05-10T09:53:08;16.37;;;14.67;;
5730;SDS011;2890;51.950;7.668;2023-05-10T09:55:38;18.17;;;15.80;;
5730;SDS011;2890;51.950;7.668;2023-05-10T09:58:06;20.87;;;16.73;;
5730;SDS011;2890;51.950;7.668;2023-05-10T10:00:35;22.33;;;17.10;;
5730;SDS011;2890;51.950;7.668;2023-05-10T10:03:03;19.70;;;15.80;;
5730;SDS011;2890;51.950;7.668;2023-05-10T10:05:31;22.63;;;15.67;;
5730;SDS011;2890;51.950;7.668;2023-05-10T10:07:57;21.97;;;16.77;;
5730;SDS011;2890;51.950;7.668;2023-05-10T10:10:24;19.30;;;15.63;;
5730;SDS011;2890;51.950;7.668;2023-05-10T10:12:51;20.53;;;16.13;;
5730;SDS011;2890;51.950;7.668;2023-05-10T10:15:18;18.13;;;16.00;;
5730;SDS011;2890;51.950;7.668;2023-05-10T10:17:44;17.70;;;15.37;;
5730;SDS011;2890;51.950;7.668;2023-05-10T10:20:11;19.40;;;14.13;;
5730;SDS011;2890;51.950;7.668;2023-05-10T10:22:40;17.43;;;14.70;;
5730;SDS011;2890;51.950;7.668;2023-05-10T10:25:07;16.67;;;14.47;;
5730;SDS011;2890;51.950;7.668;2023-05-10T10:27:36;16.70;;;15.00;;
5730;SDS011;2890;51.950;7.668;2023-05-10T10:30:11;16.63;;;14.97;;
5730;SDS011;2890;51.950;7.668;2023-05-10T10:32:51;21.20;;;16.63;;
5730;SDS011;2890;51.950;7.668;2023-05-10T10:35:26;16.90;;;15.20;;
5730;SDS011;2890;51.950;7.668;2023-05-10T10:37:56;17.07;;;15.47;;
5730;SDS011;2890;51.950;7.668;2023-05-10T10:40:23;21.00;;;15.47;;
5730;SDS011;2890;51.950;7.668;2023-05-10T10:42:50;17.13;;;15.07;;
5730;SDS011;2890;51.950;7.668;2023-05-10T10:45:18;18.50;;;16.60;;
5730;SDS011;2890;51.950;7.668;2023-05-10T10:47:46;17.00;;;15.23;;
5730;SDS011;2890;51.950;7.668;2023-05-10T10:50:12;20.17;;;17.13;;
5730;SDS011;2890;51.950;7.668;2023-05-10T10:52:39;22.43;;;16.80;;
5730;SDS011;2890;51.950;7.668;2023-05-10T10:55:08;18.13;;;16.20;;
5730;SDS011;2890;51.950;7.668;2023-05-10T10:57:42;19.90;;;17.27;;
5730;SDS011;2890;51.950;7.668;2023-05-10T11:00:19;19.33;;;14.87;;
5730;SDS011;2890;51.950;7.668;2023-05-10T11:02:54;13.93;;;12.63;;
5730;SDS011;2890;51.950;7.668;2023-05-10T11:05:33;16.27;;;14.57;;
5730;SDS011;2890;51.950;7.668;2023-05-10T11:08:08;17.03;;;15.33;;
5730;SDS011;2890;51.950;7.668;2023-05-10T11:10:53;16.53;;;13.93;;
5730;SDS011;2890;51.950;7.668;2023-05-10T11:13:30;14.90;;;13.40;;
5730;SDS011;2890;51.950;7.668;2023-05-10T11:16:14;16.97;;;15.17;;
5730;SDS011;2890;51.950;7.668;2023-05-10T11:18:52;18.97;;;14.37;;
5730;SDS011;2890;51.950;7.668;2023-05-10T11:21:28;16.93;;;15.10;;
5730;SDS011;2890;51.950;7.668;2023-05-10T11:23:56;15.83;;;14.20;;
5730;SDS011;2890;51.950;7.668;2023-05-10T11:26:25;17.60;;;15.77;;
5730;SDS011;2890;51.950;7.668;2023-05-10T11:28:54;16.97;;;15.27;;
5730;SDS011;2890;51.950;7.668;2023-05-10T11:31:22;18.07;;;15.13;;
5730;SDS011;2890;51.950;7.668;2023-05-10T11:33:49;18.30;;;15.87;;
5730;SDS011;2890;51.950;7.668;2023-05-10T11:36:18;17.93;;;15.97;;
5730;SDS011;2890;51.950;7.668;2023-05-10T11:38:45;16.27;;;14.57;;
5730;SDS011;2890;51.950;7.668;2023-05-10T11:41:12;16.33;;;14.77;;
5730;SDS011;2890;51.950;7.668;2023-05-10T11:43:41;21.63;;;16.17;;
5730;SDS011;2890;51.950;7.668;2023-05-10T11:46:10;24.97;;;18.73;;
5730;SDS011;2890;51.950;7.668;2023-05-10T11:48:38;28.03;;;19.33;;
5730;SDS011;2890;51.950;7.668;2023-05-10T11:51:04;24.47;;;17.50;;
5730;SDS011;2890;51.950;7.668;2023-05-10T11:53:31;23.77;;;17.63;;
5730;SDS011;2890;51.950;7.668;2023-05-10T11:56:02;25.70;;;19.80;;
5730;SDS011;2890;51.950;7.668;2023-05-10T11:58:30;26.20;;;19.13;;
5730;SDS011;2890;51.950;7.668;2023-05-10T12:00:58;22.93;;;17.80;;
5730;SDS011;2890;51.950;7.668;2023-05-10T12:03:24;25.63;;;17.70;;
5730;SDS011;2890;51.950;7.668;2023-05-10T12:05:51;25.30;;;18.07;;
5730;SDS011;2890;51.950;7.668;2023-05-10T12:08:19;20.87;;;17.73;;
5730;SDS011;2890;51.950;7.668;2023-05-10T12:10:47;21.00;;;18.07;;
5730;SDS011;2890;51.950;7.668;2023-05-10T12:13:14;22.23;;;17.63;;
5730;SDS011;2890;51.950;7.668;2023-05-10T12:15:40;22.37;;;16.87;;
5730;SDS011;2890;51.950;7.668;2023-05-10T12:18:09;21.27;;;17.07;;
5730;SDS011;2890;51.950;7.668;2023-05-10T12:20:36;20.47;;;15.97;;
5730;SDS011;2890;51.950;7.668;2023-05-10T12:23:03;19.10;;;16.10;;
5730;SDS011;2890;51.950;7.668;2023-05-10T12:25:31;20.70;;;16.03;;
5730;SDS011;2890;51.950;7.668;2023-05-10T12:27:58;18.50;;;15.40;;
5730;SDS011;2890;51.950;7.668;2023-05-10T12:30:26;20.23;;;16.20;;
5730;SDS011;2890;51.950;7.668;2023-05-10T12:32:53;17.73;;;14.63;;
5730;SDS011;2890;51.950;7.668;2023-05-10T12:35:22;16.90;;;14.93;;
5730;SDS011;2890;51.950;7.668;2023-05-10T12:37:49;19.13;;;16.17;;
5730;SDS011;2890;51.950;7.668;2023-05-10T12:40:16;19.03;;;15.00;;
5730;SDS011;2890;51.950;7.668;2023-05-10T12:42:43;18.07;;;15.50;;
5730;SDS011;2890;51.950;7.668;2023-05-10T12:45:10;18.80;;;16.50;;
5730;SDS011;2890;51.950;7.668;2023-05-10T12:47:37;21.40;;;15.23;;
5730;SDS011;2890;51.950;7.668;2023-05-10T12:50:04;21.33;;;15.60;;
5730;SDS011;2890;51.950;7.668;2023-05-10T12:52:32;16.07;;;13.87;;
5730;SDS011;2890;51.950;7.668;2023-05-10T12:54:59;16.33;;;13.50;;
5730;SDS011;2890;51.950;7.668;2023-05-10T12:57:26;16.57;;;14.73;;
5730;SDS011;2890;51.950;7.668;2023-05-10T12:59:54;20.57;;;14.67;;
5730;SDS011;2890;51.950;7.668;2023-05-10T13:02:20;13.37;;;11.93;;
5730;SDS011;2890;51.950;7.668;2023-05-10T13:04:48;11.13;;;10.07;;
5730;SDS011;2890;51.950;7.668;2023-05-10T13:07:14;11.90;;;10.70;;
5730;SDS011;2890;51.950;7.668;2023-05-10T13:09:42;12.40;;;10.77;;
5730;SDS011;2890;51.950;7.668;2023-05-10T13:12:09;11.20;;;10.10;;
5730;SDS011;2890;51.950;7.668;2023-05-10T13:14:35;11.70;;;10.60;;
5730;SDS011;2890;51.950;7.668;2023-05-10T13:17:02;11.70;;;10.57;;
5730;SDS011;2890;51.950;7.668;2023-05-10T13:19:28;11.60;;;10.50;;
5730;SDS011;2890;51.950;7.668;2023-05-10T13:21:55;12.00;;;10.70;;
5730;SDS011;2890;51.950;7.668;2023-05-10T13:24:21;12.30;;;11.00;;
5730;SDS011;2890;51.950;7.668;2023-05-10T13:26:49;12.10;;;10.83;;
5730;SDS011;2890;51.950;7.668;2023-05-10T13:29:16;12.67;;;11.33;;
5730;SDS011;2890;51.950;7.668;2023-05-10T13:31:50;12.37;;;11.27;;
5730;SDS011;2890;51.950;7.668;2023-05-10T13:34:16;11.90;;;10.63;;
5730;SDS011;2890;51.950;7.668;2023-05-10T13:36:45;12.33;;;11.03;;
5730;SDS011;2890;51.950;7.668;2023-05-10T13:39:12;11.53;;;10.37;;
5730;SDS011;2890;51.950;7.668;2023-05-10T13:41:38;11.53;;;10.33;;
5730;SDS011;2890;51.950;7.668;2023-05-10T13:44:06;14.47;;;12.30;;
5730;SDS011;2890;51.950;7.668;2023-05-10T13:46:33;20.40;;;15.13;;
5730;SDS011;2890;51.950;7.668;2023-05-10T13:48:59;19.57;;;16.10;;
5730;SDS011;2890;51.950;7.668;2023-05-10T13:51:26;19.87;;;16.00;;
5730;SDS011;2890;51.950;7.668;2023-05-10T13:53:52;25.60;;;17.63;;
5730;SDS011;2890;51.950;7.668;2023-05-10T13:56:19;25.60;;;19.53;;
5730;SDS011;2890;51.950;7.668;2023-05-10T13:58:46;22.83;;;17.33;;
5730;SDS011;2890;51.950;7.668;2023-05-10T14:01:13;30.27;;;18.67;;
5730;SDS011;2890;51.950;7.668;2023-05-10T14:03:40;24.13;;;19.33;;
5730;SDS011;2890;51.950;7.668;2023-05-10T14:06:07;26.00;;;18.20;;
5730;SDS011;2890;51.950;7.668;2023-05-10T14:08:34;26.90;;;19.20;;
5730;SDS011;2890;51.950;7.668;2023-05-10T14:11:01;24.87;;;18.63;;
5730;SDS011;2890;51.950;7.668;2023-05-10T14:13:27;24.70;;;19.00;;
5730;SDS011;2890;51.950;7.668;2023-05-10T14:15:54;32.57;;;19.87;;
5730;SDS011;2890;51.950;7.668;2023-05-10T14:18:22;27.37;;;19.90;;
5730;SDS011;2890;51.950;7.668;2023-05-10T14:20:48;28.33;;;19.30;;
5730;SDS011;2890;51.950;7.668;2023-05-10T14:23:15;27.03;;;18.97;;
5730;SDS011;2890;51.950;7.668;2023-05-10T14:25:41;23.60;;;18.33;;
5730;SDS011;2890;51.950;7.668;2023-05-10T14:28:08;25.57;;;17.87;;
5730;SDS011;2890;51.950;7.668;2023-05-10T14:30:35;26.70;;;18.97;;
5730;SDS011;2890;51.950;7.668;2023-05-10T14:33:01;24.30;;;18.87;;
5730;SDS011;2890;51.950;7.668;2023-05-10T14:35:29;20.50;;;15.97;;
5730;SDS011;2890;51.950;7.668;2023-05-10T14:37:56;17.30;;;14.43;;
5730;SDS011;2890;51.950;7.668;2023-05-10T14:40:23;18.67;;;15.23;;
5730;SDS011;2890;51.950;7.668;2023-05-10T14:42:50;16.80;;;14.77;;
5730;SDS011;2890;51.950;7.668;2023-05-10T14:45:17;19.60;;;14.47;;
5730;SDS011;2890;51.950;7.668;2023-05-10T14:47:44;18.30;;;15.07;;
5730;SDS011;2890;51.950;7.668;2023-05-10T14:50:10;18.77;;;14.40;;
5730;SDS011;2890;51.950;7.668;2023-05-10T14:52:38;18.00;;;13.20;;
5730;SDS011;2890;51.950;7.668;2023-05-10T14:55:05;17.90;;;14.27;;
5730;SDS011;2890;51.950;7.668;2023-05-10T14:57:32;20.73;;;16.73;;
5730;SDS011;2890;51.950;7.668;2023-05-10T14:59:59;20.03;;;16.40;;
5730;SDS011;2890;51.950;7.668;2023-05-10T15:02:25;21.50;;;17.33;;